Time;durP1;ratioP1;P1;durP2;ratioP2;P2;SDS_P1;SDS_P2;PMS_P1;PMS_P2;Temp;Humidity;BMP_temperature;BMP_pressure;BME280_temperature;BME280_humidity;BME280_pressure;Samples;Min_cycle;Max_cycle;Signal;HPM_P1;HPM_P2
2023/03/13 00:02:08;;;;;;;9.13;2.70;;;7.80;99.90;;;;;;5053091;28;20632;-81
2023/03/13 00:04:34;;;;;;;8.47;2.80;;;7.80;99.90;;;;;;5035336;28;20173;-81
2023/03/13 00:06:59;;;;;;;9.60;2.47;;;7.80;99.90;;;;;;5035221;28;20197;-80
2023/03/13 00:09:26;;;;;;;10.50;2.50;;;7.80;99.90;;;;;;5034913;28;20208;-79
2023/03/13 00:11:51;;;;;;;9.10;2.53;;;7.80;99.90;;;;;;5052516;28;20189;-81
2023/03/13 00:14:17;;;;;;;8.33;2.63;;;7.80;99.90;;;;;;5035215;28;20596;-81
2023/03/13 00:16:43;;;;;;;7.33;2.40;;;7.80;99.90;;;;;;5034751;28;20228;-81
2023/03/13 00:19:09;;;;;;;9.83;2.20;;;7.90;99.90;;;;;;5034494;28;20253;-81
2023/03/13 00:21:36;;;;;;;12.80;2.80;;;7.80;99.90;;;;;;5052771;28;20182;-81
2023/03/13 00:24:03;;;;;;;12.77;2.57;;;7.90;99.90;;;;;;5035073;28;20208;-81
2023/03/13 00:26:29;;;;;;;9.33;2.30;;;7.90;99.90;;;;;;5052745;28;20169;-81
2023/03/13 00:28:55;;;;;;;11.57;2.50;;;7.80;99.90;;;;;;5035059;28;20227;-82
2023/03/13 00:31:26;;;;;;;9.13;2.33;;;7.80;99.90;;;;;;5035036;28;20629;-81
2023/03/13 00:33:55;;;;;;;9.83;2.83;;;7.80;99.90;;;;;;5034464;28;20180;-80
2023/03/13 00:36:24;;;;;;;9.47;2.53;;;7.90;99.90;;;;;;5052432;28;20176;-80
2023/03/13 00:38:51;;;;;;;11.33;2.73;;;8.00;99.90;;;;;;5034568;28;20185;-80
2023/03/13 00:41:25;;;;;;;12.53;2.47;;;8.00;99.90;;;;;;5052537;28;20242;-81
2023/03/13 00:43:51;;;;;;;11.10;2.93;;;8.00;99.90;;;;;;5034745;28;20212;-80
2023/03/13 00:46:19;;;;;;;10.27;2.50;;;8.00;99.90;;;;;;5052193;28;20524;-81
2023/03/13 00:48:45;;;;;;;9.23;2.67;;;8.00;99.90;;;;;;5052172;28;20652;-81
2023/03/13 00:51:12;;;;;;;9.83;2.30;;;8.00;99.90;;;;;;5034254;28;20175;-81
2023/03/13 00:53:37;;;;;;;12.57;2.80;;;8.10;99.90;;;;;;5052472;28;20177;-81
2023/03/13 00:56:13;;;;;;;11.70;2.60;;;8.10;99.90;;;;;;5034497;28;20181;-81
2023/03/13 00:58:40;;;;;;;11.30;2.80;;;8.20;99.90;;;;;;5052288;28;20194;-81
2023/03/13 01:01:10;;;;;;;12.97;2.70;;;8.30;99.90;;;;;;5051261;28;20206;-81
2023/03/13 01:03:37;;;;;;;8.93;2.33;;;8.40;99.90;;;;;;5034312;28;20205;-81
2023/03/13 01:06:04;;;;;;;8.10;2.60;;;8.30;99.90;;;;;;5034442;28;20265;-80
2023/03/13 01:08:30;;;;;;;12.10;3.10;;;8.30;99.90;;;;;;5033976;28;20193;-80
2023/03/13 01:11:05;;;;;;;11.33;2.90;;;8.30;99.90;;;;;;5034199;28;20727;-81
2023/03/13 01:13:32;;;;;;;10.40;2.40;;;8.30;99.90;;;;;;5052234;28;20206;-80
2023/03/13 01:16:02;;;;;;;6.93;2.30;;;8.30;99.90;;;;;;5052034;28;20166;-80
2023/03/13 01:18:27;;;;;;;8.27;2.30;;;8.40;99.90;;;;;;5051714;28;20224;-81
2023/03/13 01:20:53;;;;;;;13.43;2.80;;;8.40;99.90;;;;;;5033916;28;20272;-80
2023/03/13 01:23:18;;;;;;;9.43;2.40;;;8.40;99.90;;;;;;5052123;28;20275;-81
2023/03/13 01:25:44;;;;;;;10.97;2.40;;;8.40;99.90;;;;;;5034533;28;20197;-80
2023/03/13 01:28:09;;;;;;;10.93;2.70;;;8.50;99.90;;;;;;5052192;28;20245;-81
2023/03/13 01:30:35;;;;;;;8.97;2.80;;;8.50;99.90;;;;;;5034367;28;20206;-82
2023/03/13 01:33:01;;;;;;;6.27;2.60;;;8.50;99.90;;;;;;5055918;28;20170;-81
2023/03/13 01:35:27;;;;;;;10.67;2.90;;;8.50;99.90;;;;;;5055858;28;20178;-80
2023/03/13 01:37:52;;;;;;;9.03;2.33;;;8.50;99.90;;;;;;5055660;28;20195;-80
2023/03/13 01:40:18;;;;;;;9.47;2.23;;;8.50;99.90;;;;;;5037811;28;20174;-81
2023/03/13 01:42:58;;;;;;;12.50;2.90;;;8.50;99.90;;;;;;5055423;28;20195;-82
2023/03/13 01:45:55;;;;;;;11.00;2.40;;;8.50;99.90;;;;;;5055597;28;20213;-80
2023/03/13 01:48:30;;;;;;;6.10;1.93;;;8.60;99.90;;;;;;5055220;28;20193;-80
2023/03/13 01:50:58;;;;;;;10.20;2.67;;;8.70;99.90;;;;;;5055428;28;20170;-81
2023/03/13 01:53:24;;;;;;;9.07;2.30;;;8.60;99.90;;;;;;5055387;28;20267;-81
2023/03/13 01:55:51;;;;;;;9.10;2.07;;;8.60;99.90;;;;;;5037294;28;20539;-81
2023/03/13 01:58:17;;;;;;;10.97;2.97;;;8.70;99.90;;;;;;5055359;28;20206;-81
2023/03/13 02:00:45;;;;;;;6.83;2.20;;;8.60;99.90;;;;;;5037085;28;20175;-81
2023/03/13 02:03:15;;;;;;;9.10;2.43;;;8.60;99.90;;;;;;5054881;28;20206;-82
2023/03/13 02:05:42;;;;;;;9.80;2.30;;;8.70;99.90;;;;;;5055291;28;20167;-81
2023/03/13 02:08:17;;;;;;;10.93;2.60;;;8.60;99.90;;;;;;5055063;28;20191;-81
2023/03/13 02:10:52;;;;;;;9.67;2.80;;;8.60;99.90;;;;;;5037094;28;20174;-80
2023/03/13 02:13:19;;;;;;;8.03;2.40;;;8.60;99.90;;;;;;5037008;28;20549;-81
2023/03/13 02:15:46;;;;;;;5.73;2.10;;;8.70;99.90;;;;;;5037241;28;20211;-81
2023/03/13 02:18:12;;;;;;;7.83;2.50;;;8.70;99.90;;;;;;5054599;28;20233;-81
2023/03/13 02:20:38;;;;;;;9.77;2.63;;;8.60;99.90;;;;;;5036648;28;20257;-81
2023/03/13 02:23:38;;;;;;;9.87;2.47;;;8.80;99.90;;;;;;5036969;28;20569;-81
2023/03/13 02:26:05;;;;;;;10.03;2.50;;;8.80;99.90;;;;;;5025962;28;20205;-82
2023/03/13 02:28:37;;;;;;;9.57;2.60;;;8.70;99.90;;;;;;5054715;28;20193;-80
2023/03/13 02:31:04;;;;;;;7.83;2.30;;;8.70;99.90;;;;;;5036522;28;20159;-80
2023/03/13 02:33:34;;;;;;;9.33;2.20;;;8.70;99.90;;;;;;5036853;28;20600;-80
2023/03/13 02:36:00;;;;;;;8.53;2.50;;;8.80;99.90;;;;;;5054726;28;20224;-80
2023/03/13 02:38:29;;;;;;;10.00;2.53;;;8.90;99.90;;;;;;5054525;28;20209;-81
2023/03/13 02:40:56;;;;;;;9.23;2.23;;;8.80;99.90;;;;;;5054710;28;20261;-81
2023/03/13 02:43:32;;;;;;;11.63;2.50;;;8.80;99.90;;;;;;5036040;28;20226;-80
2023/03/13 02:46:13;;;;;;;7.27;1.97;;;8.80;99.90;;;;;;5054614;28;20179;-80
2023/03/13 02:48:45;;;;;;;10.13;2.73;;;8.90;99.90;;;;;;5036251;28;20199;-80
2023/03/13 02:51:35;;;;;;;6.70;2.17;;;9.00;99.90;;;;;;5054523;28;20165;-81
2023/03/13 02:54:15;;;;;;;9.37;2.27;;;8.90;99.90;;;;;;5054471;28;20254;-80
2023/03/13 02:56:44;;;;;;;9.70;2.30;;;8.80;99.90;;;;;;5036384;28;20249;-82
2023/03/13 02:59:10;;;;;;;7.73;2.73;;;8.90;99.90;;;;;;5036324;28;20176;-81
2023/03/13 03:01:35;;;;;;;9.07;2.30;;;8.90;99.90;;;;;;5036200;28;20188;-80
2023/03/13 03:04:01;;;;;;;10.50;2.23;;;8.90;99.90;;;;;;5054014;28;20256;-82
2023/03/13 03:06:26;;;;;;;8.90;2.47;;;8.90;99.90;;;;;;5054077;28;20214;-80
2023/03/13 03:08:52;;;;;;;6.37;1.90;;;9.00;99.90;;;;;;5036084;28;20233;-80
2023/03/13 03:11:17;;;;;;;8.07;2.03;;;9.00;99.90;;;;;;5035954;28;20262;-81
2023/03/13 03:13:43;;;;;;;7.43;1.90;;;9.00;99.90;;;;;;5036237;28;20653;-80
2023/03/13 03:16:10;;;;;;;8.07;2.33;;;9.00;99.90;;;;;;5054041;28;20203;-80
2023/03/13 03:18:37;;;;;;;8.47;2.07;;;9.10;99.90;;;;;;5035651;28;20222;-81
2023/03/13 03:21:05;;;;;;;8.53;2.40;;;9.10;99.90;;;;;;5035670;28;20233;-80
2023/03/13 03:23:32;;;;;;;8.57;2.27;;;9.10;99.90;;;;;;5035379;28;20222;-81
2023/03/13 03:25:58;;;;;;;8.20;1.93;;;9.10;99.90;;;;;;5053471;28;20180;-81
2023/03/13 03:28:24;;;;;;;6.47;1.70;;;9.10;99.90;;;;;;5035829;28;20196;-80
2023/03/13 03:30:49;;;;;;;8.17;3.00;;;9.10;99.90;;;;;;5053534;28;20171;-80
2023/03/13 03:33:15;;;;;;;8.43;2.23;;;9.10;99.90;;;;;;5035624;28;20264;-81
2023/03/13 03:35:40;;;;;;;7.43;2.07;;;9.10;99.90;;;;;;5035612;28;20569;-81
2023/03/13 03:38:06;;;;;;;7.07;2.17;;;9.00;99.90;;;;;;5053159;28;20277;-81
2023/03/13 03:40:32;;;;;;;7.17;1.90;;;8.90;99.90;;;;;;5035524;28;20196;-80
2023/03/13 03:42:57;;;;;;;8.43;2.17;;;8.80;99.90;;;;;;5035272;28;20202;-81
2023/03/13 03:45:23;;;;;;;7.93;2.20;;;8.70;99.90;;;;;;5035258;28;20173;-81
2023/03/13 03:47:48;;;;;;;8.90;2.30;;;8.60;99.90;;;;;;5035549;28;20198;-82
2023/03/13 03:50:14;;;;;;;9.00;2.67;;;8.50;99.90;;;;;;5034947;28;20177;-81
2023/03/13 03:52:40;;;;;;;9.47;2.17;;;8.50;99.90;;;;;;5035364;28;20174;-81
2023/03/13 03:55:05;;;;;;;7.23;2.40;;;8.50;99.90;;;;;;5052290;28;20563;-81
2023/03/13 03:57:31;;;;;;;5.93;2.37;;;8.40;99.90;;;;;;5034842;28;20243;-82
2023/03/13 03:59:57;;;;;;;7.03;2.17;;;8.40;99.90;;;;;;5034774;28;20177;-80
2023/03/13 04:02:22;;;;;;;9.43;2.30;;;8.30;99.90;;;;;;5035276;28;20628;-81
2023/03/13 04:04:48;;;;;;;7.33;2.10;;;8.30;99.90;;;;;;5035248;28;20169;-81
2023/03/13 04:07:13;;;;;;;5.30;1.70;;;8.30;99.90;;;;;;5035324;28;20190;-81
2023/03/13 04:09:39;;;;;;;7.30;1.93;;;8.30;99.90;;;;;;5052874;28;20651;-80
2023/03/13 04:12:05;;;;;;;6.80;2.40;;;8.20;99.90;;;;;;5034867;28;20227;-80
2023/03/13 04:14:30;;;;;;;7.10;3.10;;;8.20;99.90;;;;;;5034919;28;20253;-80
2023/03/13 04:16:56;;;;;;;11.23;1.90;;;8.20;99.90;;;;;;5052689;28;20223;-81
2023/03/13 04:19:22;;;;;;;8.23;2.40;;;8.20;99.90;;;;;;5034760;28;20199;-80
2023/03/13 04:21:47;;;;;;;7.33;2.40;;;8.20;99.90;;;;;;5052754;28;20545;-80
2023/03/13 04:24:13;;;;;;;5.87;1.90;;;8.20;99.90;;;;;;5052662;28;20197;-80
2023/03/13 04:26:38;;;;;;;5.33;1.80;;;8.10;99.90;;;;;;5034900;28;20198;-80
2023/03/13 04:29:05;;;;;;;6.37;2.23;;;8.10;99.90;;;;;;5035181;28;20176;-80
2023/03/13 04:31:31;;;;;;;8.07;2.47;;;8.10;99.90;;;;;;5052735;28;20176;-81
2023/03/13 04:33:57;;;;;;;7.30;1.90;;;8.10;99.90;;;;;;5052293;28;20173;-81
2023/03/13 04:36:22;;;;;;;7.07;2.07;;;8.10;99.90;;;;;;5034286;28;20177;-80
2023/03/13 04:38:48;;;;;;;4.30;1.90;;;8.00;99.90;;;;;;5034928;28;20180;-80
2023/03/13 04:41:13;;;;;;;4.90;1.70;;;8.10;99.90;;;;;;5034757;28;20181;-80
2023/03/13 04:43:39;;;;;;;7.03;2.10;;;8.00;99.90;;;;;;5033773;28;20227;-81
2023/03/13 04:46:04;;;;;;;6.33;1.60;;;8.10;99.90;;;;;;5052287;28;20205;-80
2023/03/13 04:48:30;;;;;;;5.10;2.00;;;8.00;99.90;;;;;;5052431;28;20194;-80
2023/03/13 04:50:56;;;;;;;5.00;1.67;;;8.00;99.90;;;;;;5052364;28;20177;-80
2023/03/13 04:53:21;;;;;;;6.90;2.00;;;8.00;99.90;;;;;;5052541;28;20531;-80
2023/03/13 04:55:48;;;;;;;6.00;1.90;;;8.00;99.90;;;;;;5052285;28;20208;-80
2023/03/13 04:58:14;;;;;;;3.33;1.80;;;8.00;99.90;;;;;;5034237;28;20687;-80
2023/03/13 05:00:40;;;;;;;6.43;2.00;;;8.00;99.90;;;;;;5052186;28;20224;-80
2023/03/13 05:03:05;;;;;;;7.13;2.17;;;8.00;99.90;;;;;;5034042;28;20283;-81
2023/03/13 05:05:34;;;;;;;4.83;1.63;;;8.10;99.90;;;;;;5036302;28;20181;-80
2023/03/13 05:08:00;;;;;;;4.50;1.63;;;8.10;99.90;;;;;;5056277;28;20266;-80
2023/03/13 05:10:26;;;;;;;5.57;2.00;;;8.10;99.90;;;;;;5056296;28;20270;-80
2023/03/13 05:12:51;;;;;;;7.73;1.80;;;8.10;99.90;;;;;;5056095;28;20215;-81
2023/03/13 05:15:17;;;;;;;5.20;1.60;;;8.10;99.90;;;;;;5056272;28;20280;-80
2023/03/13 05:17:43;;;;;;;2.50;1.40;;;8.10;99.90;;;;;;5057797;28;20255;-83
2023/03/13 05:20:10;;;;;;;4.93;1.70;;;8.10;99.90;;;;;;5039235;28;20223;-84
2023/03/13 05:22:36;;;;;;;2.33;1.30;;;8.20;99.90;;;;;;5039053;28;20492;-84
2023/03/13 05:25:02;;;;;;;5.43;1.50;;;8.20;99.90;;;;;;5039310;28;20169;-83
2023/03/13 05:27:28;;;;;;;5.07;1.60;;;8.20;99.90;;;;;;5041315;28;20190;-83
2023/03/13 05:29:53;;;;;;;5.33;1.70;;;8.20;99.90;;;;;;5038875;28;20264;-80
2023/03/13 05:32:19;;;;;;;2.50;1.40;;;8.20;99.90;;;;;;5039231;28;20185;-84
2023/03/13 05:34:45;;;;;;;3.13;1.70;;;8.30;99.90;;;;;;5055819;28;20177;-85
2023/03/13 05:37:10;;;;;;;2.97;1.60;;;8.30;99.90;;;;;;5037671;28;20193;-84
2023/03/13 05:39:36;;;;;;;4.87;1.60;;;8.30;99.90;;;;;;5037436;28;20570;-83
2023/03/13 05:42:01;;;;;;;3.73;1.70;;;8.30;99.90;;;;;;5055299;28;20190;-86
2023/03/13 05:44:27;;;;;;;3.63;1.70;;;8.40;99.90;;;;;;5054919;28;20208;-86
2023/03/13 05:46:52;;;;;;;3.70;1.73;;;8.50;99.90;;;;;;5037411;28;20703;-86
2023/03/13 05:49:18;;;;;;;5.90;1.80;;;8.60;99.90;;;;;;5037608;28;20240;-86
2023/03/13 05:51:43;;;;;;;3.17;1.70;;;8.60;99.90;;;;;;5055282;28;20175;-85
2023/03/13 05:54:09;;;;;;;3.53;1.50;;;8.70;99.90;;;;;;5038041;28;20187;-84
2023/03/13 05:56:34;;;;;;;4.33;1.50;;;8.60;99.90;;;;;;5037883;28;20177;-84
2023/03/13 05:59:00;;;;;;;2.40;1.80;;;8.60;99.90;;;;;;5038120;28;20192;-81
2023/03/13 06:01:26;;;;;;;4.03;2.07;;;8.70;99.90;;;;;;5055816;28;20208;-81
2023/03/13 06:03:51;;;;;;;3.07;1.83;;;8.70;99.90;;;;;;5055258;28;20237;-80
2023/03/13 06:06:17;;;;;;;3.60;1.73;;;8.70;99.90;;;;;;5037544;28;20172;-80
2023/03/13 06:08:43;;;;;;;3.10;1.80;;;8.80;99.90;;;;;;5037105;28;20680;-80
2023/03/13 06:11:08;;;;;;;3.77;2.27;;;8.80;99.90;;;;;;5037454;28;20297;-84
2023/03/13 06:13:34;;;;;;;4.10;1.90;;;8.80;99.90;;;;;;5037627;28;20546;-85
2023/03/13 06:15:59;;;;;;;2.90;1.80;;;8.80;99.90;;;;;;5037366;28;20181;-85
2023/03/13 06:18:26;;;;;;;3.70;1.87;;;8.90;99.90;;;;;;5036697;28;20206;-85
2023/03/13 06:20:57;;;;;;;3.07;1.70;;;8.90;99.90;;;;;;5037092;28;20179;-84
2023/03/13 06:23:22;;;;;;;4.10;1.80;;;8.90;99.90;;;;;;5036669;28;20211;-85
2023/03/13 06:25:48;;;;;;;3.83;2.13;;;8.90;99.90;;;;;;5037256;28;20550;-84
2023/03/13 06:28:14;;;;;;;3.33;2.10;;;8.90;99.90;;;;;;5037551;28;20197;-84
2023/03/13 06:30:40;;;;;;;2.40;1.73;;;8.90;99.90;;;;;;5055629;28;20249;-83
2023/03/13 06:33:05;;;;;;;2.10;1.80;;;9.00;99.90;;;;;;5037499;28;20229;-84
2023/03/13 06:35:31;;;;;;;3.20;2.03;;;9.00;99.90;;;;;;5036854;28;20176;-85
2023/03/13 06:37:57;;;;;;;2.57;2.10;;;9.00;99.90;;;;;;5054540;28;20282;-84
2023/03/13 06:40:22;;;;;;;2.77;2.03;;;9.10;99.90;;;;;;5036443;28;20180;-84
2023/03/13 06:42:48;;;;;;;3.70;1.90;;;9.10;99.90;;;;;;5036817;28;20291;-84
2023/03/13 06:45:13;;;;;;;4.03;1.90;;;9.10;99.90;;;;;;5036389;28;20182;-84
2023/03/13 06:47:39;;;;;;;3.13;1.70;;;9.10;99.90;;;;;;5037240;28;20288;-83
2023/03/13 06:50:05;;;;;;;2.03;1.80;;;9.20;99.90;;;;;;5054947;28;20212;-83
2023/03/13 06:52:30;;;;;;;4.10;2.30;;;9.30;99.90;;;;;;5055091;28;20172;-84
2023/03/13 06:54:56;;;;;;;2.67;1.80;;;9.30;99.90;;;;;;5055670;28;20238;-83
2023/03/13 06:57:21;;;;;;;2.80;1.93;;;9.30;99.90;;;;;;5037002;28;20242;-83
2023/03/13 06:59:47;;;;;;;2.60;1.80;;;9.30;99.90;;;;;;5044067;28;20187;-81
2023/03/13 07:02:14;;;;;;;2.83;2.00;;;9.30;99.90;;;;;;5045538;28;20176;-83
2023/03/13 07:04:39;;;;;;;3.37;1.93;;;9.30;99.90;;;;;;5041284;28;20204;-83
2023/03/13 07:07:05;;;;;;;2.50;2.20;;;9.30;99.90;;;;;;5059457;28;20199;-84
2023/03/13 07:09:31;;;;;;;2.47;2.20;;;9.40;99.90;;;;;;5054673;28;20184;-84
2023/03/13 07:11:57;;;;;;;2.00;1.80;;;9.40;99.90;;;;;;5036455;28;20201;-85
2023/03/13 07:14:23;;;;;;;3.70;2.30;;;9.40;99.90;;;;;;5036866;28;20188;-87
2023/03/13 07:16:48;;;;;;;3.50;2.30;;;9.40;99.90;;;;;;5053492;28;20207;-85
2023/03/13 07:19:14;;;;;;;3.20;2.60;;;9.50;99.90;;;;;;5055237;28;20160;-84
2023/03/13 07:21:40;;;;;;;3.07;2.60;;;9.50;99.90;;;;;;5035640;28;20616;-84
2023/03/13 07:24:06;;;;;;;4.17;3.20;;;9.50;99.90;;;;;;5036133;28;20291;-83
2023/03/13 07:26:32;;;;;;;6.50;2.93;;;9.50;99.90;;;;;;5053904;28;20180;-82
2023/03/13 07:28:58;;;;;;;7.47;3.20;;;9.50;99.90;;;;;;5035275;28;20247;-83
2023/03/13 07:31:23;;;;;;;5.40;3.20;;;9.60;99.90;;;;;;5035702;28;20227;-85
2023/03/13 07:33:53;;;;;;;4.53;3.20;;;9.60;99.90;;;;;;5053759;28;20188;-84
2023/03/13 07:36:18;;;;;;;3.70;3.27;;;9.60;99.90;;;;;;5053240;28;20259;-85
2023/03/13 07:38:51;;;;;;;5.57;3.30;;;9.60;99.90;;;;;;5035438;28;20630;-84
2023/03/13 07:41:17;;;;;;;4.40;3.37;;;9.70;99.90;;;;;;5053275;28;20323;-86
2023/03/13 07:43:43;;;;;;;4.57;3.37;;;9.70;99.90;;;;;;5053128;28;20204;-85
2023/03/13 07:46:12;;;;;;;4.07;2.97;;;9.70;99.90;;;;;;5035474;28;20188;-85
2023/03/13 07:48:40;;;;;;;4.00;3.27;;;9.70;99.90;;;;;;5035031;28;20659;-85
2023/03/13 07:51:09;;;;;;;4.33;3.10;;;9.80;99.90;;;;;;5053187;28;20636;-84
2023/03/13 07:53:35;;;;;;;5.90;3.23;;;9.80;99.90;;;;;;5037680;28;20179;-79
2023/03/13 07:56:03;;;;;;;3.80;3.40;;;9.90;99.90;;;;;;5058559;28;20183;-80
2023/03/13 07:58:32;;;;;;;5.37;3.30;;;9.90;99.90;;;;;;5038787;28;20201;-85
2023/03/13 08:00:58;;;;;;;4.73;2.93;;;9.90;99.90;;;;;;5035253;28;20595;-86
2023/03/13 08:03:24;;;;;;;5.10;2.83;;;9.90;99.90;;;;;;5035032;28;20203;-85
2023/03/13 08:06:02;;;;;;;5.10;3.17;;;9.90;99.90;;;;;;5052665;28;20174;-85
2023/03/13 08:08:28;;;;;;;3.97;2.80;;;9.90;99.90;;;;;;5034809;28;20206;-84
2023/03/13 08:10:59;;;;;;;5.10;2.90;;;9.90;99.90;;;;;;5052742;28;20173;-85
2023/03/13 08:13:24;;;;;;;3.67;2.70;;;9.90;99.90;;;;;;5053035;28;20531;-85
2023/03/13 08:15:50;;;;;;;4.07;2.87;;;10.00;99.90;;;;;;5052951;28;20715;-85
2023/03/13 08:18:15;;;;;;;4.57;2.77;;;10.00;99.90;;;;;;5052759;28;20222;-84
2023/03/13 08:20:41;;;;;;;3.23;2.70;;;10.10;99.90;;;;;;5052844;28;20212;-83
2023/03/13 08:23:06;;;;;;;2.73;2.47;;;10.00;99.90;;;;;;5034668;28;20197;-82
2023/03/13 08:25:32;;;;;;;3.27;2.60;;;10.10;99.90;;;;;;5036828;28;20184;-83
2023/03/13 08:27:58;;;;;;;4.30;2.83;;;10.10;99.90;;;;;;5036959;28;20189;-83
2023/03/13 08:30:23;;;;;;;2.70;2.43;;;10.20;99.90;;;;;;5035519;28;20170;-84
2023/03/13 08:32:49;;;;;;;3.60;2.90;;;10.20;99.90;;;;;;5035605;28;20173;-82
2023/03/13 08:35:14;;;;;;;3.83;2.77;;;10.30;99.90;;;;;;5053903;28;20218;-83
2023/03/13 08:37:40;;;;;;;3.57;2.57;;;10.20;99.90;;;;;;5053189;28;20276;-83
2023/03/13 08:40:10;;;;;;;2.60;2.40;;;10.30;99.90;;;;;;5056608;28;20685;-84
2023/03/13 08:42:36;;;;;;;2.70;2.00;;;10.40;99.90;;;;;;5058197;28;20549;-85
2023/03/13 08:45:03;;;;;;;2.47;2.20;;;10.40;99.90;;;;;;5039718;28;20166;-85
2023/03/13 08:47:29;;;;;;;2.93;2.13;;;10.40;99.90;;;;;;5056842;28;20193;-85
2023/03/13 08:49:54;;;;;;;4.07;2.53;;;10.40;99.90;;;;;;5056513;28;20319;-85
2023/03/13 08:52:20;;;;;;;3.63;2.30;;;10.40;99.90;;;;;;5056274;28;20173;-84
2023/03/13 08:54:47;;;;;;;2.73;2.20;;;10.40;99.90;;;;;;5038952;28;20185;-83
2023/03/13 08:57:14;;;;;;;2.73;2.00;;;10.50;99.90;;;;;;5038791;28;20281;-84
2023/03/13 08:59:39;;;;;;;4.53;2.50;;;10.40;99.90;;;;;;5056667;28;20231;-84
2023/03/13 09:02:05;;;;;;;3.27;2.37;;;10.50;99.90;;;;;;5038936;28;20184;-84
2023/03/13 09:04:30;;;;;;;2.73;2.53;;;10.40;99.90;;;;;;5056513;28;20284;-85
2023/03/13 09:06:56;;;;;;;3.33;2.60;;;10.40;99.90;;;;;;5056602;28;20203;-84
2023/03/13 09:09:22;;;;;;;3.80;2.57;;;10.40;99.90;;;;;;5038819;28;20166;-83
2023/03/13 09:11:47;;;;;;;2.10;1.90;;;10.50;99.90;;;;;;5056148;28;20206;-87
2023/03/13 09:14:13;;;;;;;2.90;2.40;;;10.50;99.90;;;;;;5038774;28;20177;-84
2023/03/13 09:16:38;;;;;;;3.13;2.33;;;10.50;99.90;;;;;;5056050;28;20251;-85
2023/03/13 09:19:04;;;;;;;2.60;2.33;;;10.50;99.90;;;;;;5038308;28;20173;-85
2023/03/13 09:21:33;;;;;;;2.40;2.20;;;10.60;99.90;;;;;;5037867;28;20177;-85
2023/03/13 09:23:59;;;;;;;3.97;2.23;;;10.60;99.90;;;;;;5037810;28;20197;-85
2023/03/13 09:26:26;;;;;;;4.60;2.93;;;10.60;99.90;;;;;;5055802;28;20189;-85
2023/03/13 09:28:52;;;;;;;3.30;2.20;;;10.60;99.90;;;;;;5038855;28;20173;-87
2023/03/13 09:31:23;;;;;;;2.70;2.33;;;10.60;99.90;;;;;;5037864;28;20222;-86
2023/03/13 09:33:50;;;;;;;3.23;2.30;;;10.60;99.90;;;;;;5037706;28;20179;-86
2023/03/13 09:36:17;;;;;;;3.33;2.47;;;10.60;99.90;;;;;;5055672;28;20193;-86
2023/03/13 09:38:43;;;;;;;3.03;2.37;;;10.70;99.90;;;;;;5055559;28;20252;-86
2023/03/13 09:41:30;;;;;;;4.07;2.40;;;10.70;99.90;;;;;;5055587;28;20174;-84
2023/03/13 09:43:59;;;;;;;2.67;2.47;;;10.70;99.90;;;;;;5036918;28;20206;-86
2023/03/13 09:46:36;;;;;;;3.53;2.67;;;10.70;99.90;;;;;;5037556;28;20251;-86
2023/03/13 09:49:08;;;;;;;3.47;2.33;;;10.70;99.90;;;;;;5055246;28;20169;-86
2023/03/13 09:51:41;;;;;;;3.20;2.27;;;10.80;99.90;;;;;;5035563;28;20170;-86
2023/03/13 09:54:37;;;;;;;2.63;2.33;;;10.90;99.90;;;;;;5054498;28;20184;-86
2023/03/13 09:57:33;;;;;;;3.30;2.50;;;10.90;99.90;;;;;;5052271;28;20218;-86
2023/03/13 10:00:13;;;;;;;2.97;2.40;;;10.90;99.90;;;;;;5036660;28;20178;-86
2023/03/13 10:02:42;;;;;;;3.27;2.33;;;10.90;99.90;;;;;;5036778;28;20655;-86
2023/03/13 10:05:25;;;;;;;3.53;2.50;;;10.90;99.90;;;;;;5036788;28;20197;-86
2023/03/13 10:08:09;;;;;;;3.23;2.50;;;10.90;99.90;;;;;;5036658;28;20232;-86
2023/03/13 10:10:56;;;;;;;2.80;2.60;;;10.90;99.90;;;;;;5054279;28;20177;-86
2023/03/13 10:13:32;;;;;;;3.27;2.80;;;11.00;99.90;;;;;;5036584;28;20170;-86
2023/03/13 10:16:02;;;;;;;3.50;2.80;;;11.10;99.90;;;;;;5036378;28;20260;-86
2023/03/13 10:18:27;;;;;;;5.27;2.60;;;11.20;99.90;;;;;;5054333;28;20208;-86
2023/03/13 10:20:58;;;;;;;2.80;2.50;;;11.20;99.90;;;;;;5053968;28;20208;-87
2023/03/13 10:23:52;;;;;;;2.93;2.30;;;11.30;99.90;;;;;;5036378;28;20214;-86
2023/03/13 10:26:23;;;;;;;2.87;2.37;;;11.30;99.90;;;;;;5036354;28;20183;-86
2023/03/13 10:28:50;;;;;;;3.13;2.23;;;11.20;99.90;;;;;;5036274;28;20177;-86
2023/03/13 10:31:37;;;;;;;2.77;2.40;;;11.20;99.90;;;;;;5036014;28;20181;-86
2023/03/13 10:34:08;;;;;;;3.67;2.60;;;11.30;99.90;;;;;;5054062;28;20174;-86
2023/03/13 10:36:43;;;;;;;2.63;2.30;;;11.30;99.90;;;;;;5036105;28;20188;-86
2023/03/13 10:39:22;;;;;;;3.07;2.60;;;11.30;99.90;;;;;;5035921;28;20173;-86
2023/03/13 10:41:49;;;;;;;3.17;2.30;;;11.30;99.90;;;;;;5053697;28;20181;-86
2023/03/13 10:44:28;;;;;;;2.60;2.23;;;11.30;99.90;;;;;;5036016;28;20205;-87
2023/03/13 10:47:00;;;;;;;3.00;2.63;;;11.30;99.90;;;;;;5036197;28;20201;-86
2023/03/13 10:49:26;;;;;;;3.33;2.70;;;11.40;99.90;;;;;;5035864;28;20648;-86
2023/03/13 10:52:16;;;;;;;2.87;2.00;;;11.40;99.90;;;;;;5053446;28;20215;-87
2023/03/13 10:54:44;;;;;;;4.03;2.47;;;11.50;99.90;;;;;;5034182;28;20198;-86
2023/03/13 10:57:30;;;;;;;2.87;2.60;;;11.40;99.90;;;;;;5035463;28;20238;-87
2023/03/13 10:59:57;;;;;;;2.33;2.13;;;11.50;99.90;;;;;;5035440;28;20212;-87
2023/03/13 11:02:34;;;;;;;2.90;2.20;;;11.50;99.90;;;;;;5035366;28;20189;-86
2023/03/13 11:05:21;;;;;;;3.07;2.40;;;11.60;99.90;;;;;;5053610;28;20818;-87
2023/03/13 11:07:46;;;;;;;3.77;2.20;;;11.70;99.90;;;;;;5052584;28;20280;-87
2023/03/13 11:10:19;;;;;;;3.53;2.57;;;11.70;99.90;;;;;;5052860;28;20252;-87
2023/03/13 11:12:48;;;;;;;3.00;2.30;;;11.90;99.90;;;;;;5053448;28;20177;-86
2023/03/13 11:15:29;;;;;;;2.97;2.33;;;11.90;99.90;;;;;;5053428;28;20225;-86
2023/03/13 11:18:09;;;;;;;3.97;2.40;;;12.00;99.90;;;;;;5072495;22;20341;-87
2023/03/13 11:20:38;;;;;;;3.13;2.23;;;12.10;99.90;;;;;;5072158;28;20188;-86
2023/03/13 11:23:21;;;;;;;3.53;2.77;;;12.10;99.90;;;;;;5073256;28;20196;-85
2023/03/13 11:26:24;;;;;;;4.20;2.27;;;12.20;99.90;;;;;;5072245;28;20169;-86
2023/03/13 11:29:07;;;;;;;2.87;2.37;;;12.20;99.90;;;;;;5073336;28;20525;-86
2023/03/13 11:31:39;;;;;;;2.80;2.37;;;12.40;99.90;;;;;;5071751;28;20188;-86
2023/03/13 11:34:11;;;;;;;5.80;3.27;;;12.40;99.90;;;;;;5073546;28;20186;-86
2023/03/13 11:36:52;;;;;;;3.40;2.53;;;12.40;99.90;;;;;;5072253;28;20169;-85
2023/03/13 11:39:39;;;;;;;3.53;2.47;;;12.40;99.90;;;;;;5072106;28;20175;-86
2023/03/13 11:42:17;;;;;;;3.20;2.60;;;12.30;99.90;;;;;;5071739;28;20169;-86
2023/03/13 11:45:07;;;;;;;3.10;2.50;;;12.30;99.90;;;;;;5071722;28;20200;-86
2023/03/13 11:47:40;;;;;;;4.33;2.30;;;12.30;99.90;;;;;;5073093;28;20189;-86
2023/03/13 11:50:36;;;;;;;3.67;2.40;;;12.30;99.90;;;;;;5071582;28;20169;-86
2023/03/13 11:53:26;;;;;;;4.20;2.90;;;12.30;99.90;;;;;;5071904;28;20168;-86
2023/03/13 11:55:57;;;;;;;3.77;2.60;;;12.40;99.90;;;;;;5073053;28;20578;-86
2023/03/13 11:58:41;;;;;;;3.00;2.37;;;12.40;99.90;;;;;;5071943;28;20284;-86
2023/03/13 12:01:42;;;;;;;3.60;2.43;;;12.40;99.90;;;;;;5072746;28;20199;-86
2023/03/13 12:04:26;;;;;;;3.13;2.23;;;12.40;99.90;;;;;;5039633;28;20217;-86
2023/03/13 12:07:20;;;;;;;3.17;2.57;;;12.40;99.90;;;;;;5071727;28;20627;-86
2023/03/13 12:09:55;;;;;;;2.73;2.53;;;12.40;99.90;;;;;;5068634;28;20183;-86
2023/03/13 12:12:39;;;;;;;3.80;2.60;;;12.30;99.90;;;;;;5072890;28;20163;-87
2023/03/13 12:15:07;;;;;;;3.73;2.80;;;12.30;99.90;;;;;;5071014;28;20647;-86
2023/03/13 12:17:40;;;;;;;3.90;2.60;;;12.30;99.90;;;;;;5071198;28;20254;-87
2023/03/13 12:20:22;;;;;;;3.60;2.77;;;12.30;99.90;;;;;;5072287;28;20189;-85
2023/03/13 12:22:57;;;;;;;2.83;2.43;;;12.30;99.90;;;;;;5071061;28;20256;-86
2023/03/13 12:25:28;;;;;;;3.60;2.87;;;12.30;99.90;;;;;;5071479;28;20259;-87
2023/03/13 12:28:12;;;;;;;2.80;2.60;;;12.40;99.90;;;;;;5071352;28;20209;-86
2023/03/13 12:30:43;;;;;;;2.73;2.53;;;12.40;99.90;;;;;;5071162;28;20208;-86
2023/03/13 12:33:15;;;;;;;3.97;2.73;;;12.50;99.90;;;;;;5071136;28;20258;-85
2023/03/13 12:35:46;;;;;;;5.53;2.50;;;12.60;99.90;;;;;;5072402;28;20169;-86
2023/03/13 12:38:21;;;;;;;3.33;2.40;;;12.70;99.90;;;;;;5071185;28;20675;-86
2023/03/13 12:40:50;;;;;;;3.37;2.70;;;12.70;99.90;;;;;;5070977;28;20168;-84
2023/03/13 12:43:31;;;;;;;4.37;3.23;;;12.70;99.90;;;;;;5072975;28;20203;-84
2023/03/13 12:45:57;;;;;;;4.57;2.60;;;12.70;99.90;;;;;;5072302;28;20169;-87
2023/03/13 12:49:06;;;;;;;4.57;2.93;;;12.60;99.90;;;;;;5070971;28;20201;-86
2023/03/13 12:52:11;;;;;;;3.50;2.43;;;12.70;99.90;;;;;;5074191;28;20196;-82
2023/03/13 12:54:59;;;;;;;3.73;2.50;;;12.70;99.90;;;;;;5075937;28;20173;-80
2023/03/13 12:57:49;;;;;;;2.80;2.40;;;12.70;99.90;;;;;;5076341;28;20189;-81
2023/03/13 13:00:22;;;;;;;4.00;2.53;;;12.70;99.90;;;;;;5075066;28;20182;-80
2023/03/13 13:03:09;;;;;;;3.03;2.57;;;12.60;99.90;;;;;;5074257;28;20272;-81
2023/03/13 13:05:35;;;;;;;6.43;2.67;;;12.60;99.90;;;;;;5075631;28;20165;-81
2023/03/13 13:08:01;;;;;;;2.80;2.47;;;12.60;99.90;;;;;;5073654;28;20220;-81